sensor_id;sensor_type;location;lat;lon;timestamp;temperature;humidity
913;DHT22;443;51.448;7.028;2023-03-02T00:00:30;10.90;56.30
913;DHT22;443;51.448;7.028;2023-03-02T00:02:57;10.90;56.60
913;DHT22;443;51.448;7.028;2023-03-02T00:05:24;11.00;57.20
913;DHT22;443;51.448;7.028;2023-03-02T00:07:52;11.00;58.10
913;DHT22;443;51.448;7.028;2023-03-02T00:10:19;10.90;56.90
913;DHT22;443;51.448;7.028;2023-03-02T00:12:46;10.90;56.50
913;DHT22;443;51.448;7.028;2023-03-02T00:15:13;10.90;57.30
913;DHT22;443;51.448;7.028;2023-03-02T00:17:39;10.90;56.60
913;DHT22;443;51.448;7.028;2023-03-02T00:20:07;10.90;57.80
913;DHT22;443;51.448;7.028;2023-03-02T00:22:36;10.90;56.60
913;DHT22;443;51.448;7.028;2023-03-02T00:25:05;11.00;57.10
913;DHT22;443;51.448;7.028;2023-03-02T00:27:32;11.00;57.30
913;DHT22;443;51.448;7.028;2023-03-02T00:29:59;10.90;57.20
913;DHT22;443;51.448;7.028;2023-03-02T00:32:25;10.90;56.90
913;DHT22;443;51.448;7.028;2023-03-02T00:34:52;10.90;56.90
913;DHT22;443;51.448;7.028;2023-03-02T00:37:19;10.80;57.50
913;DHT22;443;51.448;7.028;2023-03-02T00:39:46;10.80;57.20
913;DHT22;443;51.448;7.028;2023-03-02T00:42:14;10.80;56.50
913;DHT22;443;51.448;7.028;2023-03-02T00:44:41;10.80;57.50
913;DHT22;443;51.448;7.028;2023-03-02T00:47:08;10.70;56.50
913;DHT22;443;51.448;7.028;2023-03-02T00:49:34;10.70;57.40
913;DHT22;443;51.448;7.028;2023-03-02T00:52:02;10.70;57.30
913;DHT22;443;51.448;7.028;2023-03-02T00:54:28;10.70;57.40
913;DHT22;443;51.448;7.028;2023-03-02T00:56:55;10.60;56.30
913;DHT22;443;51.448;7.028;2023-03-02T00:59:23;10.50;56.30
913;DHT22;443;51.448;7.028;2023-03-02T01:01:53;10.50;57.50
913;DHT22;443;51.448;7.028;2023-03-02T01:04:23;10.40;56.60
913;DHT22;443;51.448;7.028;2023-03-02T01:06:49;10.40;56.60
913;DHT22;443;51.448;7.028;2023-03-02T01:09:16;10.40;56.70
913;DHT22;443;51.448;7.028;2023-03-02T01:11:43;10.30;56.80
913;DHT22;443;51.448;7.028;2023-03-02T01:14:10;10.30;56.80
913;DHT22;443;51.448;7.028;2023-03-02T01:16:38;10.30;56.80
913;DHT22;443;51.448;7.028;2023-03-02T01:19:04;10.30;57.00
913;DHT22;443;51.448;7.028;2023-03-02T01:21:31;10.30;57.40
913;DHT22;443;51.448;7.028;2023-03-02T01:23:58;10.40;56.80
913;DHT22;443;51.448;7.028;2023-03-02T01:26:25;10.30;56.30
913;DHT22;443;51.448;7.028;2023-03-02T01:28:52;10.20;56.70
913;DHT22;443;51.448;7.028;2023-03-02T01:31:20;10.20;57.20
913;DHT22;443;51.448;7.028;2023-03-02T01:33:48;10.30;57.20
913;DHT22;443;51.448;7.028;2023-03-02T01:36:15;10.20;57.20
913;DHT22;443;51.448;7.028;2023-03-02T01:38:44;10.20;56.50
913;DHT22;443;51.448;7.028;2023-03-02T01:41:11;10.20;56.70
913;DHT22;443;51.448;7.028;2023-03-02T01:43:38;10.20;56.70
913;DHT22;443;51.448;7.028;2023-03-02T01:46:06;10.30;56.80
913;DHT22;443;51.448;7.028;2023-03-02T01:48:36;10.30;57.10
913;DHT22;443;51.448;7.028;2023-03-02T01:51:07;10.30;56.70
913;DHT22;443;51.448;7.028;2023-03-02T01:53:39;10.30;57.00
913;DHT22;443;51.448;7.028;2023-03-02T01:56:12;10.20;56.30
913;DHT22;443;51.448;7.028;2023-03-02T01:58:39;10.20;56.60
913;DHT22;443;51.448;7.028;2023-03-02T02:01:07;10.30;56.70
913;DHT22;443;51.448;7.028;2023-03-02T02:03:41;10.30;56.80
913;DHT22;443;51.448;7.028;2023-03-02T02:06:12;10.40;56.80
913;DHT22;443;51.448;7.028;2023-03-02T02:08:43;10.30;56.70
913;DHT22;443;51.448;7.028;2023-03-02T02:11:10;10.30;56.70
913;DHT22;443;51.448;7.028;2023-03-02T02:13:38;10.30;56.70
913;DHT22;443;51.448;7.028;2023-03-02T02:16:05;10.20;56.60
913;DHT22;443;51.448;7.028;2023-03-02T02:18:33;10.20;56.60
913;DHT22;443;51.448;7.028;2023-03-02T02:21:01;10.20;57.00
913;DHT22;443;51.448;7.028;2023-03-02T02:23:37;10.20;56.90
913;DHT22;443;51.448;7.028;2023-03-02T02:26:14;10.20;56.60
913;DHT22;443;51.448;7.028;2023-03-02T02:28:46;10.10;56.70
913;DHT22;443;51.448;7.028;2023-03-02T02:31:17;10.00;56.30
913;DHT22;443;51.448;7.028;2023-03-02T02:33:50;10.00;56.70
913;DHT22;443;51.448;7.028;2023-03-02T02:36:23;10.00;56.90
913;DHT22;443;51.448;7.028;2023-03-02T02:38:53;10.00;56.50
913;DHT22;443;51.448;7.028;2023-03-02T02:41:24;10.00;56.80
913;DHT22;443;51.448;7.028;2023-03-02T02:43:53;10.00;56.90
913;DHT22;443;51.448;7.028;2023-03-02T02:46:20;9.90;57.30
913;DHT22;443;51.448;7.028;2023-03-02T02:48:47;9.90;57.50
913;DHT22;443;51.448;7.028;2023-03-02T02:51:19;9.90;57.00
913;DHT22;443;51.448;7.028;2023-03-02T02:53:53;9.90;57.50
913;DHT22;443;51.448;7.028;2023-03-02T02:56:25;9.90;57.80
913;DHT22;443;51.448;7.028;2023-03-02T02:58:53;9.90;58.10
913;DHT22;443;51.448;7.028;2023-03-02T03:01:22;9.90;57.30
913;DHT22;443;51.448;7.028;2023-03-02T03:03:51;9.80;57.60
913;DHT22;443;51.448;7.028;2023-03-02T03:06:22;9.80;58.50
913;DHT22;443;51.448;7.028;2023-03-02T03:08:56;9.80;58.50
913;DHT22;443;51.448;7.028;2023-03-02T03:11:27;9.70;57.80
913;DHT22;443;51.448;7.028;2023-03-02T03:14:01;9.80;57.90
913;DHT22;443;51.448;7.028;2023-03-02T03:16:30;9.80;58.20
913;DHT22;443;51.448;7.028;2023-03-02T03:19:02;9.80;57.70
913;DHT22;443;51.448;7.028;2023-03-02T03:21:30;9.70;57.70
913;DHT22;443;51.448;7.028;2023-03-02T03:23:57;9.70;58.20
913;DHT22;443;51.448;7.028;2023-03-02T03:26:25;9.70;58.40
913;DHT22;443;51.448;7.028;2023-03-02T03:28:52;9.70;58.00
913;DHT22;443;51.448;7.028;2023-03-02T03:31:22;9.70;57.80
913;DHT22;443;51.448;7.028;2023-03-02T03:33:49;9.60;58.20
913;DHT22;443;51.448;7.028;2023-03-02T03:36:15;9.60;57.80
913;DHT22;443;51.448;7.028;2023-03-02T03:38:43;9.60;58.00
913;DHT22;443;51.448;7.028;2023-03-02T03:41:10;9.50;58.00
913;DHT22;443;51.448;7.028;2023-03-02T03:43:38;9.50;58.40
913;DHT22;443;51.448;7.028;2023-03-02T03:46:05;9.50;58.50
913;DHT22;443;51.448;7.028;2023-03-02T03:48:32;9.50;58.30
913;DHT22;443;51.448;7.028;2023-03-02T03:50:59;9.50;58.30
913;DHT22;443;51.448;7.028;2023-03-02T03:53:26;9.40;58.20
913;DHT22;443;51.448;7.028;2023-03-02T03:55:53;9.50;58.40
913;DHT22;443;51.448;7.028;2023-03-02T03:58:22;9.40;58.40
913;DHT22;443;51.448;7.028;2023-03-02T04:00:50;9.50;58.30
913;DHT22;443;51.448;7.028;2023-03-02T04:03:17;9.50;58.20
913;DHT22;443;51.448;7.028;2023-03-02T04:05:45;9.50;58.50
913;DHT22;443;51.448;7.028;2023-03-02T04:08:11;9.40;58.10
913;DHT22;443;51.448;7.028;2023-03-02T04:10:39;9.40;58.10
913;DHT22;443;51.448;7.028;2023-03-02T04:13:06;9.50;58.50
913;DHT22;443;51.448;7.028;2023-03-02T04:15:32;9.50;58.50
913;DHT22;443;51.448;7.028;2023-03-02T04:18:00;9.40;58.20
913;DHT22;443;51.448;7.028;2023-03-02T04:20:28;9.50;58.50
913;DHT22;443;51.448;7.028;2023-03-02T04:22:56;9.40;57.80
913;DHT22;443;51.448;7.028;2023-03-02T04:25:25;9.40;58.30
913;DHT22;443;51.448;7.028;2023-03-02T04:27:53;9.50;58.00
913;DHT22;443;51.448;7.028;2023-03-02T04:30:22;9.50;58.00
913;DHT22;443;51.448;7.028;2023-03-02T04:32:50;9.50;58.20
913;DHT22;443;51.448;7.028;2023-03-02T04:35:18;9.40;57.80
913;DHT22;443;51.448;7.028;2023-03-02T04:37:45;9.40;58.10
913;DHT22;443;51.448;7.028;2023-03-02T04:40:13;9.40;58.20
913;DHT22;443;51.448;7.028;2023-03-02T04:42:39;9.40;57.80
913;DHT22;443;51.448;7.028;2023-03-02T04:45:07;9.40;57.90
913;DHT22;443;51.448;7.028;2023-03-02T04:47:34;9.40;58.10
913;DHT22;443;51.448;7.028;2023-03-02T04:50:01;9.40;58.20
913;DHT22;443;51.448;7.028;2023-03-02T04:52:29;9.30;58.50
913;DHT22;443;51.448;7.028;2023-03-02T04:54:56;9.40;58.50
913;DHT22;443;51.448;7.028;2023-03-02T04:57:22;9.40;58.60
913;DHT22;443;51.448;7.028;2023-03-02T04:59:49;9.30;58.30
913;DHT22;443;51.448;7.028;2023-03-02T05:02:16;9.30;58.20
913;DHT22;443;51.448;7.028;2023-03-02T05:04:42;9.30;58.10
913;DHT22;443;51.448;7.028;2023-03-02T05:07:09;9.40;58.40
913;DHT22;443;51.448;7.028;2023-03-02T05:09:37;9.40;58.40
913;DHT22;443;51.448;7.028;2023-03-02T05:12:04;9.30;58.30
913;DHT22;443;51.448;7.028;2023-03-02T05:14:31;9.30;58.60
913;DHT22;443;51.448;7.028;2023-03-02T05:16:58;9.20;58.50
913;DHT22;443;51.448;7.028;2023-03-02T05:19:25;9.20;58.80
913;DHT22;443;51.448;7.028;2023-03-02T05:21:52;9.20;59.20
913;DHT22;443;51.448;7.028;2023-03-02T05:24:18;9.20;58.50
913;DHT22;443;51.448;7.028;2023-03-02T05:26:46;9.20;58.60
913;DHT22;443;51.448;7.028;2023-03-02T05:29:13;9.20;58.50
913;DHT22;443;51.448;7.028;2023-03-02T05:31:42;9.20;58.90
913;DHT22;443;51.448;7.028;2023-03-02T05:34:11;9.20;58.80
913;DHT22;443;51.448;7.028;2023-03-02T05:36:38;9.20;58.90
913;DHT22;443;51.448;7.028;2023-03-02T05:39:06;9.30;59.10
913;DHT22;443;51.448;7.028;2023-03-02T05:41:33;9.30;59.00
913;DHT22;443;51.448;7.028;2023-03-02T05:44:02;9.30;59.00
913;DHT22;443;51.448;7.028;2023-03-02T05:46:28;9.30;58.80
913;DHT22;443;51.448;7.028;2023-03-02T05:48:55;9.30;58.70
913;DHT22;443;51.448;7.028;2023-03-02T05:51:22;9.30;59.10
913;DHT22;443;51.448;7.028;2023-03-02T05:53:49;9.30;59.00
913;DHT22;443;51.448;7.028;2023-03-02T05:56:15;9.30;58.50
913;DHT22;443;51.448;7.028;2023-03-02T05:58:44;9.30;58.80
913;DHT22;443;51.448;7.028;2023-03-02T06:01:13;9.30;58.60
913;DHT22;443;51.448;7.028;2023-03-02T06:03:39;9.30;58.80
913;DHT22;443;51.448;7.028;2023-03-02T06:06:06;9.30;59.10
913;DHT22;443;51.448;7.028;2023-03-02T06:08:33;9.30;59.00
913;DHT22;443;51.448;7.028;2023-03-02T06:11:05;9.20;58.80
913;DHT22;443;51.448;7.028;2023-03-02T06:13:32;9.20;58.70
913;DHT22;443;51.448;7.028;2023-03-02T06:15:59;9.20;58.70
913;DHT22;443;51.448;7.028;2023-03-02T06:18:27;9.20;58.70
913;DHT22;443;51.448;7.028;2023-03-02T06:20:54;9.20;58.80
913;DHT22;443;51.448;7.028;2023-03-02T06:23:22;9.30;58.70
913;DHT22;443;51.448;7.028;2023-03-02T06:25:49;9.30;58.70
913;DHT22;443;51.448;7.028;2023-03-02T06:28:16;9.20;58.30
913;DHT22;443;51.448;7.028;2023-03-02T06:30:44;9.20;58.60
913;DHT22;443;51.448;7.028;2023-03-02T06:33:13;9.20;58.70
913;DHT22;443;51.448;7.028;2023-03-02T06:35:41;9.20;58.90
913;DHT22;443;51.448;7.028;2023-03-02T06:38:08;9.30;58.90
913;DHT22;443;51.448;7.028;2023-03-02T06:40:35;9.30;58.70
913;DHT22;443;51.448;7.028;2023-03-02T06:43:02;9.30;58.70
913;DHT22;443;51.448;7.028;2023-03-02T06:45:29;9.30;58.70
913;DHT22;443;51.448;7.028;2023-03-02T06:47:58;9.30;58.50
913;DHT22;443;51.448;7.028;2023-03-02T06:50:25;9.30;58.40
913;DHT22;443;51.448;7.028;2023-03-02T06:52:55;9.30;58.50
913;DHT22;443;51.448;7.028;2023-03-02T06:55:22;9.30;58.30
913;DHT22;443;51.448;7.028;2023-03-02T06:57:49;9.40;58.30
913;DHT22;443;51.448;7.028;2023-03-02T07:00:17;9.40;58.20
913;DHT22;443;51.448;7.028;2023-03-02T07:02:49;9.50;58.20
913;DHT22;443;51.448;7.028;2023-03-02T07:05:16;9.60;57.80
913;DHT22;443;51.448;7.028;2023-03-02T07:07:43;9.70;58.90
913;DHT22;443;51.448;7.028;2023-03-02T07:10:11;9.70;58.20
913;DHT22;443;51.448;7.028;2023-03-02T07:12:39;9.70;58.10
913;DHT22;443;51.448;7.028;2023-03-02T07:15:07;10.10;59.50
913;DHT22;443;51.448;7.028;2023-03-02T07:17:36;10.00;56.90
913;DHT22;443;51.448;7.028;2023-03-02T07:20:03;10.00;56.50
913;DHT22;443;51.448;7.028;2023-03-02T07:22:30;10.00;57.00
913;DHT22;443;51.448;7.028;2023-03-02T07:24:57;10.20;57.20
913;DHT22;443;51.448;7.028;2023-03-02T07:27:25;10.40;57.10
913;DHT22;443;51.448;7.028;2023-03-02T07:29:52;10.40;58.00
913;DHT22;443;51.448;7.028;2023-03-02T07:32:19;10.30;56.40
913;DHT22;443;51.448;7.028;2023-03-02T07:34:46;10.10;56.30
913;DHT22;443;51.448;7.028;2023-03-02T07:37:13;10.00;56.10
913;DHT22;443;51.448;7.028;2023-03-02T07:39:39;10.30;57.50
913;DHT22;443;51.448;7.028;2023-03-02T07:42:06;10.20;56.70
913;DHT22;443;51.448;7.028;2023-03-02T07:44:34;10.30;56.50
913;DHT22;443;51.448;7.028;2023-03-02T07:47:01;10.20;56.70
913;DHT22;443;51.448;7.028;2023-03-02T07:49:29;10.10;56.50
913;DHT22;443;51.448;7.028;2023-03-02T07:51:55;10.00;55.60
913;DHT22;443;51.448;7.028;2023-03-02T07:54:22;10.30;58.40
913;DHT22;443;51.448;7.028;2023-03-02T07:56:51;10.10;56.20
913;DHT22;443;51.448;7.028;2023-03-02T07:59:17;10.30;57.70
913;DHT22;443;51.448;7.028;2023-03-02T08:01:45;10.20;55.70
913;DHT22;443;51.448;7.028;2023-03-02T08:04:12;10.10;56.00
913;DHT22;443;51.448;7.028;2023-03-02T08:06:39;10.10;56.20
913;DHT22;443;51.448;7.028;2023-03-02T08:09:06;10.10;56.00
913;DHT22;443;51.448;7.028;2023-03-02T08:11:32;10.10;56.30
913;DHT22;443;51.448;7.028;2023-03-02T08:13:59;10.10;56.40
913;DHT22;443;51.448;7.028;2023-03-02T08:16:27;10.20;56.90
913;DHT22;443;51.448;7.028;2023-03-02T08:18:55;10.30;56.20
913;DHT22;443;51.448;7.028;2023-03-02T08:21:24;10.30;56.20
913;DHT22;443;51.448;7.028;2023-03-02T08:23:51;10.40;56.00
913;DHT22;443;51.448;7.028;2023-03-02T08:26:19;10.40;55.70
913;DHT22;443;51.448;7.028;2023-03-02T08:28:46;10.40;55.50
913;DHT22;443;51.448;7.028;2023-03-02T08:31:13;10.40;55.80
913;DHT22;443;51.448;7.028;2023-03-02T08:33:40;10.40;55.90
913;DHT22;443;51.448;7.028;2023-03-02T08:36:11;10.40;55.80
913;DHT22;443;51.448;7.028;2023-03-02T08:38:38;10.70;58.50
913;DHT22;443;51.448;7.028;2023-03-02T08:41:06;10.80;56.80
913;DHT22;443;51.448;7.028;2023-03-02T08:43:34;10.70;55.20
913;DHT22;443;51.448;7.028;2023-03-02T08:46:01;10.70;55.90
913;DHT22;443;51.448;7.028;2023-03-02T08:48:28;10.80;55.90
913;DHT22;443;51.448;7.028;2023-03-02T08:50:56;11.00;57.50
913;DHT22;443;51.448;7.028;2023-03-02T08:53:25;11.20;57.80
913;DHT22;443;51.448;7.028;2023-03-02T08:55:52;11.30;55.70
913;DHT22;443;51.448;7.028;2023-03-02T08:58:19;11.20;54.90
913;DHT22;443;51.448;7.028;2023-03-02T09:00:46;11.30;58.10
913;DHT22;443;51.448;7.028;2023-03-02T09:03:13;11.40;58.10
913;DHT22;443;51.448;7.028;2023-03-02T09:05:40;11.70;60.20
913;DHT22;443;51.448;7.028;2023-03-02T09:08:07;11.40;56.00
913;DHT22;443;51.448;7.028;2023-03-02T09:10:36;11.40;55.00
913;DHT22;443;51.448;7.028;2023-03-02T09:13:03;11.20;55.40
913;DHT22;443;51.448;7.028;2023-03-02T09:15:29;11.50;57.70
913;DHT22;443;51.448;7.028;2023-03-02T09:17:56;11.70;57.40
913;DHT22;443;51.448;7.028;2023-03-02T09:20:23;11.70;57.70
913;DHT22;443;51.448;7.028;2023-03-02T09:22:50;11.50;54.30
913;DHT22;443;51.448;7.028;2023-03-02T09:25:17;11.40;55.30
913;DHT22;443;51.448;7.028;2023-03-02T09:27:46;11.30;54.30
913;DHT22;443;51.448;7.028;2023-03-02T09:30:14;11.50;56.90
913;DHT22;443;51.448;7.028;2023-03-02T09:32:41;11.40;54.40
913;DHT22;443;51.448;7.028;2023-03-02T09:35:08;11.40;54.80
913;DHT22;443;51.448;7.028;2023-03-02T09:37:35;11.30;53.80
913;DHT22;443;51.448;7.028;2023-03-02T09:40:05;11.30;55.00
913;DHT22;443;51.448;7.028;2023-03-02T09:42:50;11.60;57.10
913;DHT22;443;51.448;7.028;2023-03-02T09:45:28;11.50;54.10
913;DHT22;443;51.448;7.028;2023-03-02T09:48:04;12.00;59.80
913;DHT22;443;51.448;7.028;2023-03-02T09:50:37;12.10;57.60
913;DHT22;443;51.448;7.028;2023-03-02T09:53:20;12.00;56.60
913;DHT22;443;51.448;7.028;2023-03-02T09:55:53;11.90;55.20
913;DHT22;443;51.448;7.028;2023-03-02T09:58:22;11.80;56.00
913;DHT22;443;51.448;7.028;2023-03-02T10:00:51;11.80;58.10
913;DHT22;443;51.448;7.028;2023-03-02T10:03:20;11.90;55.30
913;DHT22;443;51.448;7.028;2023-03-02T10:05:48;11.80;55.90
913;DHT22;443;51.448;7.028;2023-03-02T10:08:18;11.80;55.50
913;DHT22;443;51.448;7.028;2023-03-02T10:10:51;11.90;55.50
913;DHT22;443;51.448;7.028;2023-03-02T10:13:25;11.90;57.50
913;DHT22;443;51.448;7.028;2023-03-02T10:16:05;12.00;57.10
913;DHT22;443;51.448;7.028;2023-03-02T10:18:38;11.80;53.80
913;DHT22;443;51.448;7.028;2023-03-02T10:21:11;11.90;57.20
913;DHT22;443;51.448;7.028;2023-03-02T10:23:43;12.00;56.40
913;DHT22;443;51.448;7.028;2023-03-02T10:26:21;12.10;57.00
913;DHT22;443;51.448;7.028;2023-03-02T10:28:57;12.00;54.70
913;DHT22;443;51.448;7.028;2023-03-02T10:31:27;11.90;55.30
913;DHT22;443;51.448;7.028;2023-03-02T10:33:54;12.00;56.80
913;DHT22;443;51.448;7.028;2023-03-02T10:36:24;12.00;56.90
913;DHT22;443;51.448;7.028;2023-03-02T10:38:52;12.10;56.20
913;DHT22;443;51.448;7.028;2023-03-02T10:41:22;12.30;58.70
913;DHT22;443;51.448;7.028;2023-03-02T10:43:54;12.20;53.20
913;DHT22;443;51.448;7.028;2023-03-02T10:46:22;12.10;55.50
913;DHT22;443;51.448;7.028;2023-03-02T10:48:52;12.00;53.70
913;DHT22;443;51.448;7.028;2023-03-02T10:51:22;12.00;55.10
913;DHT22;443;51.448;7.028;2023-03-02T10:54:05;12.10;55.00
913;DHT22;443;51.448;7.028;2023-03-02T10:56:32;12.10;54.10
913;DHT22;443;51.448;7.028;2023-03-02T10:59:00;12.40;58.80
913;DHT22;443;51.448;7.028;2023-03-02T11:01:29;12.30;54.90
913;DHT22;443;51.448;7.028;2023-03-02T11:03:57;12.30;56.40
913;DHT22;443;51.448;7.028;2023-03-02T11:06:25;12.40;56.80
913;DHT22;443;51.448;7.028;2023-03-02T11:09:02;12.30;54.40
913;DHT22;443;51.448;7.028;2023-03-02T11:11:29;12.30;54.30
913;DHT22;443;51.448;7.028;2023-03-02T11:14:09;12.20;54.50
913;DHT22;443;51.448;7.028;2023-03-02T11:16:36;12.30;57.20
913;DHT22;443;51.448;7.028;2023-03-02T11:19:08;12.30;55.70
913;DHT22;443;51.448;7.028;2023-03-02T11:21:39;12.40;57.60
913;DHT22;443;51.448;7.028;2023-03-02T11:24:10;12.40;56.20
913;DHT22;443;51.448;7.028;2023-03-02T11:26:43;12.60;57.20
913;DHT22;443;51.448;7.028;2023-03-02T11:29:24;12.50;52.90
913;DHT22;443;51.448;7.028;2023-03-02T11:31:57;12.60;57.20
913;DHT22;443;51.448;7.028;2023-03-02T11:34:29;12.60;58.10
913;DHT22;443;51.448;7.028;2023-03-02T11:37:04;12.60;57.50
913;DHT22;443;51.448;7.028;2023-03-02T11:39:49;12.70;54.40
913;DHT22;443;51.448;7.028;2023-03-02T11:42:22;12.70;57.50
913;DHT22;443;51.448;7.028;2023-03-02T11:44:52;12.80;58.50
913;DHT22;443;51.448;7.028;2023-03-02T11:47:20;12.80;55.30
913;DHT22;443;51.448;7.028;2023-03-02T11:49:51;12.80;55.00
913;DHT22;443;51.448;7.028;2023-03-02T11:52:21;12.80;57.10
913;DHT22;443;51.448;7.028;2023-03-02T11:54:54;12.70;54.80
913;DHT22;443;51.448;7.028;2023-03-02T11:57:27;12.60;54.20
913;DHT22;443;51.448;7.028;2023-03-02T11:59:57;12.70;58.00
913;DHT22;443;51.448;7.028;2023-03-02T12:02:25;12.80;56.60
913;DHT22;443;51.448;7.028;2023-03-02T12:05:01;12.70;53.70
913;DHT22;443;51.448;7.028;2023-03-02T12:07:28;12.70;53.00
913;DHT22;443;51.448;7.028;2023-03-02T12:09:57;12.80;55.70
913;DHT22;443;51.448;7.028;2023-03-02T12:12:39;12.80;57.60
913;DHT22;443;51.448;7.028;2023-03-02T12:15:33;12.90;54.70
913;DHT22;443;51.448;7.028;2023-03-02T12:18:01;13.00;57.50
913;DHT22;443;51.448;7.028;2023-03-02T12:20:28;13.10;58.20
913;DHT22;443;51.448;7.028;2023-03-02T12:23:07;13.00;54.90
913;DHT22;443;51.448;7.028;2023-03-02T12:25:40;13.10;55.30
913;DHT22;443;51.448;7.028;2023-03-02T12:28:27;13.10;56.40
913;DHT22;443;51.448;7.028;2023-03-02T12:31:04;13.20;57.20
913;DHT22;443;51.448;7.028;2023-03-02T12:33:31;13.10;54.50
913;DHT22;443;51.448;7.028;2023-03-02T12:36:04;13.20;57.90
913;DHT22;443;51.448;7.028;2023-03-02T12:38:36;13.20;56.80
913;DHT22;443;51.448;7.028;2023-03-02T12:41:44;13.20;56.10
913;DHT22;443;51.448;7.028;2023-03-02T12:44:24;13.20;56.50
913;DHT22;443;51.448;7.028;2023-03-02T12:46:58;13.20;55.70
913;DHT22;443;51.448;7.028;2023-03-02T12:49:40;13.20;57.70
913;DHT22;443;51.448;7.028;2023-03-02T12:52:19;13.30;57.10
913;DHT22;443;51.448;7.028;2023-03-02T12:54:59;13.20;57.00
913;DHT22;443;51.448;7.028;2023-03-02T12:57:26;13.30;57.20
913;DHT22;443;51.448;7.028;2023-03-02T12:59:55;13.30;56.70
913;DHT22;443;51.448;7.028;2023-03-02T13:02:25;13.30;56.40
913;DHT22;443;51.448;7.028;2023-03-02T13:04:54;13.30;56.80
913;DHT22;443;51.448;7.028;2023-03-02T13:07:24;13.30;56.60
913;DHT22;443;51.448;7.028;2023-03-02T13:09:52;13.30;56.70
913;DHT22;443;51.448;7.028;2023-03-02T13:12:19;13.30;54.30
913;DHT22;443;51.448;7.028;2023-03-02T13:14:49;13.40;54.30
913;DHT22;443;51.448;7.028;2023-03-02T13:17:24;13.40;55.90
913;DHT22;443;51.448;7.028;2023-03-02T13:19:51;13.40;56.00
913;DHT22;443;51.448;7.028;2023-03-02T13:22:19;13.40;55.00
913;DHT22;443;51.448;7.028;2023-03-02T13:24:50;13.40;56.50
913;DHT22;443;51.448;7.028;2023-03-02T13:27:19;13.50;57.40
913;DHT22;443;51.448;7.028;2023-03-02T13:29:46;13.50;54.40
913;DHT22;443;51.448;7.028;2023-03-02T13:32:17;13.50;56.10
913;DHT22;443;51.448;7.028;2023-03-02T13:34:48;13.50;56.60
913;DHT22;443;51.448;7.028;2023-03-02T13:37:20;13.60;54.70
913;DHT22;443;51.448;7.028;2023-03-02T13:39:53;13.60;52.40
913;DHT22;443;51.448;7.028;2023-03-02T13:42:26;13.60;55.20
913;DHT22;443;51.448;7.028;2023-03-02T13:44:53;13.60;57.00
913;DHT22;443;51.448;7.028;2023-03-02T13:47:22;13.70;57.10
913;DHT22;443;51.448;7.028;2023-03-02T13:49:50;13.70;57.10
913;DHT22;443;51.448;7.028;2023-03-02T13:52:22;13.80;56.90
913;DHT22;443;51.448;7.028;2023-03-02T13:54:50;13.80;55.30
913;DHT22;443;51.448;7.028;2023-03-02T13:57:21;13.90;50.60
913;DHT22;443;51.448;7.028;2023-03-02T13:59:49;13.90;52.80
913;DHT22;443;51.448;7.028;2023-03-02T14:02:22;14.00;53.80
913;DHT22;443;51.448;7.028;2023-03-02T14:04:51;14.00;55.90
913;DHT22;443;51.448;7.028;2023-03-02T14:07:18;14.00;54.60
913;DHT22;443;51.448;7.028;2023-03-02T14:09:45;14.10;55.80
913;DHT22;443;51.448;7.028;2023-03-02T14:12:21;14.20;54.00
913;DHT22;443;51.448;7.028;2023-03-02T14:14:48;14.20;56.10
913;DHT22;443;51.448;7.028;2023-03-02T14:17:20;14.20;55.70
913;DHT22;443;51.448;7.028;2023-03-02T14:19:48;14.30;54.80
913;DHT22;443;51.448;7.028;2023-03-02T14:22:19;14.30;54.20
913;DHT22;443;51.448;7.028;2023-03-02T14:24:46;14.40;55.90
913;DHT22;443;51.448;7.028;2023-03-02T14:27:13;14.30;56.20
913;DHT22;443;51.448;7.028;2023-03-02T14:29:41;14.50;54.70
913;DHT22;443;51.448;7.028;2023-03-02T14:32:10;14.50;55.90
913;DHT22;443;51.448;7.028;2023-03-02T14:34:37;14.60;55.10
913;DHT22;443;51.448;7.028;2023-03-02T14:37:06;14.60;55.40
913;DHT22;443;51.448;7.028;2023-03-02T14:39:37;14.60;55.40
913;DHT22;443;51.448;7.028;2023-03-02T14:42:07;14.70;55.10
913;DHT22;443;51.448;7.028;2023-03-02T14:44:36;14.70;55.10
913;DHT22;443;51.448;7.028;2023-03-02T14:47:03;14.80;55.50
913;DHT22;443;51.448;7.028;2023-03-02T14:49:29;14.70;54.90
913;DHT22;443;51.448;7.028;2023-03-02T14:51:59;14.80;55.70
913;DHT22;443;51.448;7.028;2023-03-02T14:54:38;14.80;55.40
913;DHT22;443;51.448;7.028;2023-03-02T14:57:14;14.80;55.80
913;DHT22;443;51.448;7.028;2023-03-02T14:59:42;14.80;55.70
913;DHT22;443;51.448;7.028;2023-03-02T15:02:09;14.90;55.30
913;DHT22;443;51.448;7.028;2023-03-02T15:04:36;14.90;55.50
913;DHT22;443;51.448;7.028;2023-03-02T15:07:03;14.90;55.40
913;DHT22;443;51.448;7.028;2023-03-02T15:09:30;15.00;54.60
913;DHT22;443;51.448;7.028;2023-03-02T15:11:58;15.00;54.50
913;DHT22;443;51.448;7.028;2023-03-02T15:14:25;15.00;55.10
913;DHT22;443;51.448;7.028;2023-03-02T15:16:52;15.00;54.60
913;DHT22;443;51.448;7.028;2023-03-02T15:19:18;15.10;54.80
913;DHT22;443;51.448;7.028;2023-03-02T15:21:45;15.00;55.10
913;DHT22;443;51.448;7.028;2023-03-02T15:24:12;15.00;54.70
913;DHT22;443;51.448;7.028;2023-03-02T15:26:39;15.00;54.80
913;DHT22;443;51.448;7.028;2023-03-02T15:29:08;15.10;54.40
913;DHT22;443;51.448;7.028;2023-03-02T15:31:35;15.20;54.90
913;DHT22;443;51.448;7.028;2023-03-02T15:34:01;15.20;54.60
913;DHT22;443;51.448;7.028;2023-03-02T15:36:28;15.30;54.60
913;DHT22;443;51.448;7.028;2023-03-02T15:38:55;15.30;54.80
913;DHT22;443;51.448;7.028;2023-03-02T15:41:22;15.40;54.80
913;DHT22;443;51.448;7.028;2023-03-02T15:43:49;15.40;54.40
913;DHT22;443;51.448;7.028;2023-03-02T15:46:18;15.40;54.70
913;DHT22;443;51.448;7.028;2023-03-02T15:48:44;15.50;54.60
913;DHT22;443;51.448;7.028;2023-03-02T15:51:11;15.50;54.50
913;DHT22;443;51.448;7.028;2023-03-02T15:53:39;15.60;54.40
913;DHT22;443;51.448;7.028;2023-03-02T15:56:06;15.60;54.20
913;DHT22;443;51.448;7.028;2023-03-02T15:58:34;15.70;54.30
913;DHT22;443;51.448;7.028;2023-03-02T16:01:05;15.70;54.30
913;DHT22;443;51.448;7.028;2023-03-02T16:03:34;15.70;54.30
913;DHT22;443;51.448;7.028;2023-03-02T16:06:00;15.70;54.30
913;DHT22;443;51.448;7.028;2023-03-02T16:08:28;15.70;54.10
913;DHT22;443;51.448;7.028;2023-03-02T16:10:55;15.70;54.10
913;DHT22;443;51.448;7.028;2023-03-02T16:13:22;15.80;54.10
913;DHT22;443;51.448;7.028;2023-03-02T16:15:49;15.90;53.70
913;DHT22;443;51.448;7.028;2023-03-02T16:18:16;15.80;53.80
913;DHT22;443;51.448;7.028;2023-03-02T16:20:44;15.80;53.90
913;DHT22;443;51.448;7.028;2023-03-02T16:23:11;15.80;53.90
913;DHT22;443;51.448;7.028;2023-03-02T16:25:40;15.80;54.20
913;DHT22;443;51.448;7.028;2023-03-02T16:28:08;15.70;54.10
913;DHT22;443;51.448;7.028;2023-03-02T16:30:34;15.60;54.00
913;DHT22;443;51.448;7.028;2023-03-02T16:33:04;15.50;54.10
913;DHT22;443;51.448;7.028;2023-03-02T16:35:33;15.40;54.40
913;DHT22;443;51.448;7.028;2023-03-02T16:38:02;15.30;54.90
913;DHT22;443;51.448;7.028;2023-03-02T16:40:28;15.20;54.50
913;DHT22;443;51.448;7.028;2023-03-02T16:42:55;15.10;54.90
913;DHT22;443;51.448;7.028;2023-03-02T16:45:22;15.10;54.50
913;DHT22;443;51.448;7.028;2023-03-02T16:47:49;15.10;54.60
913;DHT22;443;51.448;7.028;2023-03-02T16:50:16;15.10;54.90